Terminal Aerodrome Forecast
Issued by NWS North Platte, NE

Home | Current Version | Previous Version | Text Only | Print | Product List | Glossary On
Versions: 1 2 3 4 5 6 7 8 9 10 11 12 13
529
FTUS43 KLBF 172320
TAFVTN
TAF
KVTN 172320Z 1800/1824 19007KT P6SM SCT030
     FM180800 26008KT P6SM FEW200
     FM181700 25012G18KT P6SM SCT200=

USA.gov is the U.S. government's official web portal to all federal, state and local government web resources and services.